sensor_id;sensor_type;location;lat;lon;timestamp;temperature;humidity
13944;DHT22;7044;53.286;8.534;2023-08-21T00:00:46;16.50;99.90
13944;DHT22;7044;53.286;8.534;2023-08-21T00:03:13;16.60;99.90
13944;DHT22;7044;53.286;8.534;2023-08-21T00:05:40;16.60;99.90
13944;DHT22;7044;53.286;8.534;2023-08-21T00:08:07;16.60;99.90
13944;DHT22;7044;53.286;8.534;2023-08-21T00:10:37;16.60;99.90
13944;DHT22;7044;53.286;8.534;2023-08-21T00:13:05;16.50;99.90
13944;DHT22;7044;53.286;8.534;2023-08-21T00:15:32;16.50;99.90
13944;DHT22;7044;53.286;8.534;2023-08-21T00:17:59;16.50;99.90
13944;DHT22;7044;53.286;8.534;2023-08-21T00:20:26;16.60;99.90
13944;DHT22;7044;53.286;8.534;2023-08-21T00:22:53;16.60;99.90
13944;DHT22;7044;53.286;8.534;2023-08-21T00:25:21;16.70;99.90
13944;DHT22;7044;53.286;8.534;2023-08-21T00:27:48;16.60;99.90
13944;DHT22;7044;53.286;8.534;2023-08-21T00:30:16;16.60;99.90
13944;DHT22;7044;53.286;8.534;2023-08-21T00:32:43;16.50;99.90
13944;DHT22;7044;53.286;8.534;2023-08-21T00:35:10;16.50;99.90
13944;DHT22;7044;53.286;8.534;2023-08-21T00:37:37;16.70;99.90
13944;DHT22;7044;53.286;8.534;2023-08-21T00:40:04;16.50;99.90
13944;DHT22;7044;53.286;8.534;2023-08-21T00:42:31;16.50;99.90
13944;DHT22;7044;53.286;8.534;2023-08-21T00:44:58;16.50;99.90
13944;DHT22;7044;53.286;8.534;2023-08-21T00:47:26;16.60;99.90
13944;DHT22;7044;53.286;8.534;2023-08-21T00:49:53;16.50;99.90
13944;DHT22;7044;53.286;8.534;2023-08-21T00:52:20;16.50;99.90
13944;DHT22;7044;53.286;8.534;2023-08-21T00:54:47;16.40;99.90
13944;DHT22;7044;53.286;8.534;2023-08-21T00:57:14;16.70;99.90
13944;DHT22;7044;53.286;8.534;2023-08-21T00:59:41;17.10;99.90
13944;DHT22;7044;53.286;8.534;2023-08-21T01:02:08;16.30;99.90
13944;DHT22;7044;53.286;8.534;2023-08-21T01:04:36;16.20;99.90
13944;DHT22;7044;53.286;8.534;2023-08-21T01:07:03;16.20;99.90
13944;DHT22;7044;53.286;8.534;2023-08-21T01:09:39;16.30;99.90
13944;DHT22;7044;53.286;8.534;2023-08-21T01:12:12;16.20;99.90
13944;DHT22;7044;53.286;8.534;2023-08-21T01:14:45;16.30;99.90
13944;DHT22;7044;53.286;8.534;2023-08-21T01:17:16;16.30;99.90
13944;DHT22;7044;53.286;8.534;2023-08-21T01:19:48;16.20;99.90
13944;DHT22;7044;53.286;8.534;2023-08-21T01:22:16;16.20;99.90
13944;DHT22;7044;53.286;8.534;2023-08-21T01:24:44;16.20;99.90
13944;DHT22;7044;53.286;8.534;2023-08-21T01:27:12;16.10;99.90
13944;DHT22;7044;53.286;8.534;2023-08-21T01:29:40;15.90;99.90
13944;DHT22;7044;53.286;8.534;2023-08-21T01:32:32;16.10;99.90
13944;DHT22;7044;53.286;8.534;2023-08-21T01:35:00;16.00;99.90
13944;DHT22;7044;53.286;8.534;2023-08-21T01:37:29;16.10;99.90
13944;DHT22;7044;53.286;8.534;2023-08-21T01:39:58;16.10;99.90
13944;DHT22;7044;53.286;8.534;2023-08-21T01:42:25;15.80;99.90
13944;DHT22;7044;53.286;8.534;2023-08-21T01:44:51;16.10;99.90
13944;DHT22;7044;53.286;8.534;2023-08-21T01:47:18;16.10;99.90
13944;DHT22;7044;53.286;8.534;2023-08-21T01:49:46;16.20;99.90
13944;DHT22;7044;53.286;8.534;2023-08-21T01:52:13;16.30;99.90
13944;DHT22;7044;53.286;8.534;2023-08-21T01:54:40;16.40;99.90
13944;DHT22;7044;53.286;8.534;2023-08-21T01:57:07;16.40;99.90
13944;DHT22;7044;53.286;8.534;2023-08-21T01:59:34;16.40;99.90
13944;DHT22;7044;53.286;8.534;2023-08-21T02:02:01;16.40;99.90
13944;DHT22;7044;53.286;8.534;2023-08-21T02:04:28;16.40;99.90
13944;DHT22;7044;53.286;8.534;2023-08-21T02:06:56;16.30;99.90
13944;DHT22;7044;53.286;8.534;2023-08-21T02:09:23;15.90;99.90
13944;DHT22;7044;53.286;8.534;2023-08-21T02:11:49;15.80;99.90
13944;DHT22;7044;53.286;8.534;2023-08-21T02:14:16;15.80;99.90
13944;DHT22;7044;53.286;8.534;2023-08-21T02:16:43;15.70;99.90
13944;DHT22;7044;53.286;8.534;2023-08-21T02:19:10;15.60;99.90
13944;DHT22;7044;53.286;8.534;2023-08-21T02:21:37;15.60;99.90
13944;DHT22;7044;53.286;8.534;2023-08-21T02:24:05;15.70;99.90
13944;DHT22;7044;53.286;8.534;2023-08-21T02:26:32;15.70;99.90
13944;DHT22;7044;53.286;8.534;2023-08-21T02:28:58;15.80;99.90
13944;DHT22;7044;53.286;8.534;2023-08-21T02:31:25;15.40;99.90
13944;DHT22;7044;53.286;8.534;2023-08-21T02:33:52;15.80;99.90
13944;DHT22;7044;53.286;8.534;2023-08-21T02:36:19;15.80;99.90
13944;DHT22;7044;53.286;8.534;2023-08-21T02:38:46;15.80;99.90
13944;DHT22;7044;53.286;8.534;2023-08-21T02:41:14;15.90;99.90
13944;DHT22;7044;53.286;8.534;2023-08-21T02:43:40;15.90;99.90
13944;DHT22;7044;53.286;8.534;2023-08-21T02:46:07;16.00;99.90
13944;DHT22;7044;53.286;8.534;2023-08-21T02:48:34;15.80;99.90
13944;DHT22;7044;53.286;8.534;2023-08-21T02:51:01;15.70;99.90
13944;DHT22;7044;53.286;8.534;2023-08-21T02:53:28;15.70;99.90
13944;DHT22;7044;53.286;8.534;2023-08-21T02:55:55;15.60;99.90
13944;DHT22;7044;53.286;8.534;2023-08-21T02:58:23;15.50;99.90
13944;DHT22;7044;53.286;8.534;2023-08-21T03:00:50;15.50;99.90
13944;DHT22;7044;53.286;8.534;2023-08-21T03:03:16;15.30;99.90
13944;DHT22;7044;53.286;8.534;2023-08-21T03:05:43;15.40;99.90
13944;DHT22;7044;53.286;8.534;2023-08-21T03:08:10;15.10;99.90
13944;DHT22;7044;53.286;8.534;2023-08-21T03:10:37;15.40;99.90
13944;DHT22;7044;53.286;8.534;2023-08-21T03:13:04;15.20;99.90
13944;DHT22;7044;53.286;8.534;2023-08-21T03:15:32;14.90;99.90
13944;DHT22;7044;53.286;8.534;2023-08-21T03:17:59;14.90;99.90
13944;DHT22;7044;53.286;8.534;2023-08-21T03:20:25;14.70;99.90
13944;DHT22;7044;53.286;8.534;2023-08-21T03:22:52;14.70;99.90
13944;DHT22;7044;53.286;8.534;2023-08-21T03:25:19;14.50;99.90
13944;DHT22;7044;53.286;8.534;2023-08-21T03:27:46;14.40;99.90
13944;DHT22;7044;53.286;8.534;2023-08-21T03:30:15;14.80;99.90
13944;DHT22;7044;53.286;8.534;2023-08-21T03:32:43;15.00;99.90
13944;DHT22;7044;53.286;8.534;2023-08-21T03:35:10;14.60;99.90
13944;DHT22;7044;53.286;8.534;2023-08-21T03:37:37;14.50;99.90
13944;DHT22;7044;53.286;8.534;2023-08-21T03:40:04;14.60;99.90
13944;DHT22;7044;53.286;8.534;2023-08-21T03:42:31;14.50;99.90
13944;DHT22;7044;53.286;8.534;2023-08-21T03:44:58;14.50;99.90
13944;DHT22;7044;53.286;8.534;2023-08-21T03:47:25;14.50;99.90
13944;DHT22;7044;53.286;8.534;2023-08-21T03:49:53;14.50;99.90
13944;DHT22;7044;53.286;8.534;2023-08-21T03:52:20;12.20;99.90
13944;DHT22;7044;53.286;8.534;2023-08-21T03:54:46;14.60;99.90
13944;DHT22;7044;53.286;8.534;2023-08-21T03:57:13;14.60;99.90
13944;DHT22;7044;53.286;8.534;2023-08-21T03:59:40;14.70;99.90
13944;DHT22;7044;53.286;8.534;2023-08-21T04:02:07;14.70;99.90
13944;DHT22;7044;53.286;8.534;2023-08-21T04:04:33;14.40;99.90
13944;DHT22;7044;53.286;8.534;2023-08-21T04:07:02;14.60;99.90
13944;DHT22;7044;53.286;8.534;2023-08-21T04:09:28;14.70;99.90
13944;DHT22;7044;53.286;8.534;2023-08-21T04:11:55;14.70;99.90
13944;DHT22;7044;53.286;8.534;2023-08-21T04:14:22;14.70;99.90
13944;DHT22;7044;53.286;8.534;2023-08-21T04:16:49;14.60;99.90
13944;DHT22;7044;53.286;8.534;2023-08-21T04:19:16;14.60;99.90
13944;DHT22;7044;53.286;8.534;2023-08-21T04:21:42;14.60;99.90
13944;DHT22;7044;53.286;8.534;2023-08-21T04:24:10;14.60;99.90
13944;DHT22;7044;53.286;8.534;2023-08-21T04:26:37;14.60;99.90
13944;DHT22;7044;53.286;8.534;2023-08-21T04:29:04;14.70;99.90
13944;DHT22;7044;53.286;8.534;2023-08-21T04:31:31;14.70;99.90
13944;DHT22;7044;53.286;8.534;2023-08-21T04:33:58;14.60;99.90
13944;DHT22;7044;53.286;8.534;2023-08-21T04:36:25;14.60;99.90
13944;DHT22;7044;53.286;8.534;2023-08-21T04:38:52;14.40;99.90
13944;DHT22;7044;53.286;8.534;2023-08-21T04:41:20;14.60;99.90
13944;DHT22;7044;53.286;8.534;2023-08-21T04:43:47;14.60;99.90
13944;DHT22;7044;53.286;8.534;2023-08-21T04:46:14;14.60;99.90
13944;DHT22;7044;53.286;8.534;2023-08-21T04:48:40;14.50;99.90
13944;DHT22;7044;53.286;8.534;2023-08-21T04:51:07;14.50;99.90
13944;DHT22;7044;53.286;8.534;2023-08-21T04:53:34;14.50;99.90
13944;DHT22;7044;53.286;8.534;2023-08-21T04:56:01;14.50;99.90
13944;DHT22;7044;53.286;8.534;2023-08-21T04:58:30;14.50;99.90
13944;DHT22;7044;53.286;8.534;2023-08-21T05:00:56;14.50;99.90
13944;DHT22;7044;53.286;8.534;2023-08-21T05:03:24;14.50;99.90
13944;DHT22;7044;53.286;8.534;2023-08-21T05:05:54;14.60;99.90
13944;DHT22;7044;53.286;8.534;2023-08-21T05:08:23;14.60;99.90
13944;DHT22;7044;53.286;8.534;2023-08-21T05:10:54;14.70;99.90
13944;DHT22;7044;53.286;8.534;2023-08-21T05:15:52;14.80;99.90
13944;DHT22;7044;53.286;8.534;2023-08-21T05:18:20;14.70;99.90
13944;DHT22;7044;53.286;8.534;2023-08-21T05:20:47;14.70;99.90
13944;DHT22;7044;53.286;8.534;2023-08-21T05:23:14;14.70;99.90
13944;DHT22;7044;53.286;8.534;2023-08-21T05:25:40;14.90;99.90
13944;DHT22;7044;53.286;8.534;2023-08-21T05:28:07;14.90;99.90
13944;DHT22;7044;53.286;8.534;2023-08-21T05:30:36;15.00;99.90
13944;DHT22;7044;53.286;8.534;2023-08-21T05:33:04;15.20;99.90
13944;DHT22;7044;53.286;8.534;2023-08-21T05:35:33;15.30;99.90
13944;DHT22;7044;53.286;8.534;2023-08-21T05:38:00;15.30;99.90
13944;DHT22;7044;53.286;8.534;2023-08-21T05:40:27;15.30;99.90
13944;DHT22;7044;53.286;8.534;2023-08-21T05:42:53;15.30;99.90
13944;DHT22;7044;53.286;8.534;2023-08-21T05:45:20;15.40;99.90
13944;DHT22;7044;53.286;8.534;2023-08-21T05:47:47;15.40;99.90
13944;DHT22;7044;53.286;8.534;2023-08-21T05:50:15;15.40;99.90
13944;DHT22;7044;53.286;8.534;2023-08-21T05:52:42;16.00;99.90
13944;DHT22;7044;53.286;8.534;2023-08-21T05:57:36;15.70;99.90
13944;DHT22;7044;53.286;8.534;2023-08-21T06:00:04;15.50;99.90
13944;DHT22;7044;53.286;8.534;2023-08-21T06:02:33;15.80;99.90
13944;DHT22;7044;53.286;8.534;2023-08-21T06:05:00;15.90;99.90
13944;DHT22;7044;53.286;8.534;2023-08-21T06:07:29;15.90;99.90
13944;DHT22;7044;53.286;8.534;2023-08-21T06:09:56;16.00;99.90
13944;DHT22;7044;53.286;8.534;2023-08-21T06:12:23;12.50;99.90
13944;DHT22;7044;53.286;8.534;2023-08-21T06:14:50;15.90;99.90
13944;DHT22;7044;53.286;8.534;2023-08-21T06:17:16;16.10;99.90
13944;DHT22;7044;53.286;8.534;2023-08-21T06:19:44;16.20;99.90
13944;DHT22;7044;53.286;8.534;2023-08-21T06:22:10;16.30;99.90
13944;DHT22;7044;53.286;8.534;2023-08-21T06:24:38;16.40;99.90
13944;DHT22;7044;53.286;8.534;2023-08-21T06:27:05;16.40;99.90
13944;DHT22;7044;53.286;8.534;2023-08-21T06:29:32;16.40;99.90
13944;DHT22;7044;53.286;8.534;2023-08-21T06:31:59;16.50;99.90
13944;DHT22;7044;53.286;8.534;2023-08-21T06:34:26;16.70;99.90
13944;DHT22;7044;53.286;8.534;2023-08-21T06:36:52;16.30;99.90
13944;DHT22;7044;53.286;8.534;2023-08-21T06:39:19;16.70;99.90
13944;DHT22;7044;53.286;8.534;2023-08-21T06:41:47;16.80;99.90
13944;DHT22;7044;53.286;8.534;2023-08-21T06:44:14;17.00;99.90
13944;DHT22;7044;53.286;8.534;2023-08-21T06:46:41;17.20;99.90
13944;DHT22;7044;53.286;8.534;2023-08-21T06:49:08;17.10;99.90
13944;DHT22;7044;53.286;8.534;2023-08-21T06:51:35;15.80;99.90
13944;DHT22;7044;53.286;8.534;2023-08-21T06:54:02;17.20;99.90
13944;DHT22;7044;53.286;8.534;2023-08-21T06:56:29;17.30;99.90
13944;DHT22;7044;53.286;8.534;2023-08-21T06:58:57;17.40;99.90
13944;DHT22;7044;53.286;8.534;2023-08-21T07:01:24;17.20;99.90
13944;DHT22;7044;53.286;8.534;2023-08-21T07:03:51;17.40;99.90
13944;DHT22;7044;53.286;8.534;2023-08-21T07:06:17;17.40;99.90
13944;DHT22;7044;53.286;8.534;2023-08-21T07:08:44;17.60;99.90
13944;DHT22;7044;53.286;8.534;2023-08-21T07:11:11;17.60;99.90
13944;DHT22;7044;53.286;8.534;2023-08-21T07:13:38;17.60;99.90
13944;DHT22;7044;53.286;8.534;2023-08-21T07:16:07;17.70;99.90
13944;DHT22;7044;53.286;8.534;2023-08-21T07:18:34;17.90;99.90
13944;DHT22;7044;53.286;8.534;2023-08-21T07:21:02;17.90;99.90
13944;DHT22;7044;53.286;8.534;2023-08-21T07:23:30;17.90;99.90
13944;DHT22;7044;53.286;8.534;2023-08-21T07:25:57;18.00;99.90
13944;DHT22;7044;53.286;8.534;2023-08-21T07:28:24;17.90;99.90
13944;DHT22;7044;53.286;8.534;2023-08-21T07:30:54;18.00;99.90
13944;DHT22;7044;53.286;8.534;2023-08-21T07:33:23;18.10;99.90
13944;DHT22;7044;53.286;8.534;2023-08-21T07:35:57;18.00;99.90
13944;DHT22;7044;53.286;8.534;2023-08-21T07:38:24;18.10;99.90
13944;DHT22;7044;53.286;8.534;2023-08-21T07:40:51;18.20;99.90
13944;DHT22;7044;53.286;8.534;2023-08-21T07:43:17;18.10;99.90
13944;DHT22;7044;53.286;8.534;2023-08-21T07:45:44;18.20;99.90
13944;DHT22;7044;53.286;8.534;2023-08-21T07:48:11;18.30;99.90
13944;DHT22;7044;53.286;8.534;2023-08-21T07:50:39;18.30;99.90
13944;DHT22;7044;53.286;8.534;2023-08-21T07:53:06;18.30;99.90
13944;DHT22;7044;53.286;8.534;2023-08-21T07:55:33;18.30;99.90
13944;DHT22;7044;53.286;8.534;2023-08-21T07:57:59;18.30;99.90
13944;DHT22;7044;53.286;8.534;2023-08-21T08:00:26;18.40;99.90
13944;DHT22;7044;53.286;8.534;2023-08-21T08:02:53;18.40;99.90
13944;DHT22;7044;53.286;8.534;2023-08-21T08:05:20;18.40;99.90
13944;DHT22;7044;53.286;8.534;2023-08-21T08:07:48;18.40;99.90
13944;DHT22;7044;53.286;8.534;2023-08-21T08:10:15;18.30;99.90
13944;DHT22;7044;53.286;8.534;2023-08-21T08:12:42;18.40;99.90
13944;DHT22;7044;53.286;8.534;2023-08-21T08:15:10;18.40;99.90
13944;DHT22;7044;53.286;8.534;2023-08-21T08:17:36;18.50;99.90
13944;DHT22;7044;53.286;8.534;2023-08-21T08:20:04;18.60;99.90
13944;DHT22;7044;53.286;8.534;2023-08-21T08:22:31;18.60;99.90
13944;DHT22;7044;53.286;8.534;2023-08-21T08:25:00;18.70;99.90
13944;DHT22;7044;53.286;8.534;2023-08-21T08:27:26;18.60;99.90
13944;DHT22;7044;53.286;8.534;2023-08-21T08:29:53;18.70;99.90
13944;DHT22;7044;53.286;8.534;2023-08-21T08:32:20;18.70;99.90
13944;DHT22;7044;53.286;8.534;2023-08-21T08:34:47;18.80;99.90
13944;DHT22;7044;53.286;8.534;2023-08-21T08:37:13;18.80;99.90
13944;DHT22;7044;53.286;8.534;2023-08-21T08:39:40;18.90;99.90
13944;DHT22;7044;53.286;8.534;2023-08-21T08:42:08;19.00;99.90
13944;DHT22;7044;53.286;8.534;2023-08-21T08:44:36;19.00;99.90
13944;DHT22;7044;53.286;8.534;2023-08-21T08:47:04;19.00;99.90
13944;DHT22;7044;53.286;8.534;2023-08-21T08:49:31;19.00;99.90
13944;DHT22;7044;53.286;8.534;2023-08-21T08:51:59;19.20;99.90
13944;DHT22;7044;53.286;8.534;2023-08-21T08:54:27;19.10;99.90
13944;DHT22;7044;53.286;8.534;2023-08-21T08:56:54;19.10;99.90
13944;DHT22;7044;53.286;8.534;2023-08-21T08:59:22;19.20;99.90
13944;DHT22;7044;53.286;8.534;2023-08-21T09:01:49;19.20;99.90
13944;DHT22;7044;53.286;8.534;2023-08-21T09:04:16;19.30;99.90
13944;DHT22;7044;53.286;8.534;2023-08-21T09:06:43;19.30;99.90
13944;DHT22;7044;53.286;8.534;2023-08-21T09:09:09;19.30;99.90
13944;DHT22;7044;53.286;8.534;2023-08-21T09:11:42;19.40;99.90
13944;DHT22;7044;53.286;8.534;2023-08-21T09:14:10;19.40;99.90
13944;DHT22;7044;53.286;8.534;2023-08-21T09:16:56;19.40;99.90
13944;DHT22;7044;53.286;8.534;2023-08-21T09:19:23;19.40;99.90
13944;DHT22;7044;53.286;8.534;2023-08-21T09:21:50;19.50;99.90
13944;DHT22;7044;53.286;8.534;2023-08-21T09:24:17;19.60;99.90
13944;DHT22;7044;53.286;8.534;2023-08-21T09:26:44;19.60;99.90
13944;DHT22;7044;53.286;8.534;2023-08-21T09:29:11;19.60;99.90
13944;DHT22;7044;53.286;8.534;2023-08-21T09:31:39;19.80;99.90
13944;DHT22;7044;53.286;8.534;2023-08-21T09:34:06;20.00;99.90
13944;DHT22;7044;53.286;8.534;2023-08-21T09:36:34;20.00;99.90
13944;DHT22;7044;53.286;8.534;2023-08-21T09:39:02;20.10;99.90
13944;DHT22;7044;53.286;8.534;2023-08-21T09:41:29;20.10;99.90
13944;DHT22;7044;53.286;8.534;2023-08-21T09:43:58;20.10;99.90
13944;DHT22;7044;53.286;8.534;2023-08-21T09:46:27;20.30;99.90
13944;DHT22;7044;53.286;8.534;2023-08-21T09:48:55;20.20;99.90
13944;DHT22;7044;53.286;8.534;2023-08-21T09:51:22;20.20;99.90
13944;DHT22;7044;53.286;8.534;2023-08-21T09:53:49;17.20;99.90
13944;DHT22;7044;53.286;8.534;2023-08-21T09:56:18;20.50;99.90
13944;DHT22;7044;53.286;8.534;2023-08-21T09:58:47;20.60;99.90
13944;DHT22;7044;53.286;8.534;2023-08-21T10:01:15;20.50;99.90
13944;DHT22;7044;53.286;8.534;2023-08-21T10:03:43;20.60;99.90
13944;DHT22;7044;53.286;8.534;2023-08-21T10:06:16;20.60;99.90
13944;DHT22;7044;53.286;8.534;2023-08-21T10:08:46;20.80;99.90
13944;DHT22;7044;53.286;8.534;2023-08-21T10:11:17;20.80;99.90
13944;DHT22;7044;53.286;8.534;2023-08-21T10:13:45;20.80;99.90
13944;DHT22;7044;53.286;8.534;2023-08-21T10:16:13;20.80;99.90
13944;DHT22;7044;53.286;8.534;2023-08-21T10:18:44;20.80;99.90
13944;DHT22;7044;53.286;8.534;2023-08-21T10:21:14;21.00;99.90
13944;DHT22;7044;53.286;8.534;2023-08-21T10:23:42;22.00;99.90
13944;DHT22;7044;53.286;8.534;2023-08-21T10:26:12;21.20;99.90
13944;DHT22;7044;53.286;8.534;2023-08-21T10:28:47;21.20;99.90
13944;DHT22;7044;53.286;8.534;2023-08-21T10:31:28;21.20;99.90
13944;DHT22;7044;53.286;8.534;2023-08-21T10:33:55;21.20;99.90
13944;DHT22;7044;53.286;8.534;2023-08-21T10:36:40;21.20;99.90
13944;DHT22;7044;53.286;8.534;2023-08-21T10:39:28;21.30;99.90
13944;DHT22;7044;53.286;8.534;2023-08-21T10:41:57;21.30;99.90
13944;DHT22;7044;53.286;8.534;2023-08-21T10:44:34;21.40;99.90
13944;DHT22;7044;53.286;8.534;2023-08-21T10:47:13;21.40;99.90
13944;DHT22;7044;53.286;8.534;2023-08-21T10:49:42;21.40;99.90
13944;DHT22;7044;53.286;8.534;2023-08-21T10:52:11;21.70;99.90
13944;DHT22;7044;53.286;8.534;2023-08-21T10:54:49;21.50;99.90
13944;DHT22;7044;53.286;8.534;2023-08-21T10:57:16;21.60;99.90
13944;DHT22;7044;53.286;8.534;2023-08-21T10:59:50;21.60;99.90
13944;DHT22;7044;53.286;8.534;2023-08-21T11:02:17;21.60;99.90
13944;DHT22;7044;53.286;8.534;2023-08-21T11:04:44;21.60;99.90
13944;DHT22;7044;53.286;8.534;2023-08-21T11:07:12;21.60;99.90
13944;DHT22;7044;53.286;8.534;2023-08-21T11:09:39;21.60;99.90
13944;DHT22;7044;53.286;8.534;2023-08-21T11:12:08;21.60;99.90
13944;DHT22;7044;53.286;8.534;2023-08-21T11:14:35;21.70;99.90
13944;DHT22;7044;53.286;8.534;2023-08-21T11:17:03;21.70;99.90
13944;DHT22;7044;53.286;8.534;2023-08-21T11:19:30;21.70;99.90
13944;DHT22;7044;53.286;8.534;2023-08-21T11:21:58;21.70;99.90
13944;DHT22;7044;53.286;8.534;2023-08-21T11:24:31;21.60;99.90
13944;DHT22;7044;53.286;8.534;2023-08-21T11:26:58;21.60;99.90
13944;DHT22;7044;53.286;8.534;2023-08-21T11:29:25;22.00;99.90
13944;DHT22;7044;53.286;8.534;2023-08-21T11:31:52;21.90;99.90
13944;DHT22;7044;53.286;8.534;2023-08-21T11:34:20;22.10;99.90
13944;DHT22;7044;53.286;8.534;2023-08-21T11:36:48;22.10;99.90
13944;DHT22;7044;53.286;8.534;2023-08-21T11:39:15;22.30;99.90
13944;DHT22;7044;53.286;8.534;2023-08-21T11:41:55;22.20;99.90
13944;DHT22;7044;53.286;8.534;2023-08-21T11:44:22;22.20;99.90
13944;DHT22;7044;53.286;8.534;2023-08-21T11:46:51;22.10;99.90
13944;DHT22;7044;53.286;8.534;2023-08-21T11:49:18;22.10;99.90
13944;DHT22;7044;53.286;8.534;2023-08-21T11:51:47;22.10;99.90
13944;DHT22;7044;53.286;8.534;2023-08-21T11:54:17;22.10;99.90
13944;DHT22;7044;53.286;8.534;2023-08-21T11:56:43;22.30;99.90
13944;DHT22;7044;53.286;8.534;2023-08-21T11:59:21;21.90;99.90
13944;DHT22;7044;53.286;8.534;2023-08-21T12:01:50;22.20;99.90
13944;DHT22;7044;53.286;8.534;2023-08-21T12:04:17;22.30;99.90
13944;DHT22;7044;53.286;8.534;2023-08-21T12:06:44;22.20;99.90
13944;DHT22;7044;53.286;8.534;2023-08-21T12:09:11;22.00;99.90
13944;DHT22;7044;53.286;8.534;2023-08-21T12:11:38;22.20;99.90
13944;DHT22;7044;53.286;8.534;2023-08-21T12:14:04;22.30;99.90
13944;DHT22;7044;53.286;8.534;2023-08-21T12:16:33;22.30;99.90
13944;DHT22;7044;53.286;8.534;2023-08-21T12:19:00;22.60;99.90
13944;DHT22;7044;53.286;8.534;2023-08-21T12:21:28;22.60;99.90
13944;DHT22;7044;53.286;8.534;2023-08-21T12:23:56;22.60;99.90
13944;DHT22;7044;53.286;8.534;2023-08-21T12:26:23;22.50;99.90
13944;DHT22;7044;53.286;8.534;2023-08-21T12:28:50;22.70;99.90
13944;DHT22;7044;53.286;8.534;2023-08-21T12:31:16;22.80;99.90
13944;DHT22;7044;53.286;8.534;2023-08-21T12:33:45;22.70;99.90
13944;DHT22;7044;53.286;8.534;2023-08-21T12:36:11;22.60;99.90
13944;DHT22;7044;53.286;8.534;2023-08-21T12:38:38;22.60;99.90
13944;DHT22;7044;53.286;8.534;2023-08-21T12:41:05;22.60;99.90
13944;DHT22;7044;53.286;8.534;2023-08-21T12:43:32;22.60;99.90
13944;DHT22;7044;53.286;8.534;2023-08-21T12:45:59;22.70;99.90
13944;DHT22;7044;53.286;8.534;2023-08-21T12:48:25;22.80;99.90
13944;DHT22;7044;53.286;8.534;2023-08-21T12:50:54;22.80;99.90
13944;DHT22;7044;53.286;8.534;2023-08-21T12:53:20;22.80;99.90
13944;DHT22;7044;53.286;8.534;2023-08-21T12:55:47;22.90;99.90
13944;DHT22;7044;53.286;8.534;2023-08-21T12:58:14;22.90;99.90
13944;DHT22;7044;53.286;8.534;2023-08-21T13:00:41;22.90;99.90
13944;DHT22;7044;53.286;8.534;2023-08-21T13:03:08;22.90;99.90
13944;DHT22;7044;53.286;8.534;2023-08-21T13:05:35;23.00;99.90
13944;DHT22;7044;53.286;8.534;2023-08-21T13:08:03;23.00;99.90
13944;DHT22;7044;53.286;8.534;2023-08-21T13:10:30;22.90;99.90
13944;DHT22;7044;53.286;8.534;2023-08-21T13:12:57;22.90;99.90
13944;DHT22;7044;53.286;8.534;2023-08-21T13:15:24;22.80;99.90
13944;DHT22;7044;53.286;8.534;2023-08-21T13:17:50;22.80;99.90
13944;DHT22;7044;53.286;8.534;2023-08-21T13:20:17;22.80;99.90
13944;DHT22;7044;53.286;8.534;2023-08-21T13:22:45;22.90;99.90
13944;DHT22;7044;53.286;8.534;2023-08-21T13:25:15;22.90;99.90
13944;DHT22;7044;53.286;8.534;2023-08-21T13:27:43;23.00;99.90
13944;DHT22;7044;53.286;8.534;2023-08-21T13:30:11;23.00;99.90
13944;DHT22;7044;53.286;8.534;2023-08-21T13:32:38;23.30;99.90
13944;DHT22;7044;53.286;8.534;2023-08-21T13:35:06;23.30;99.90
13944;DHT22;7044;53.286;8.534;2023-08-21T13:37:34;23.40;99.90
13944;DHT22;7044;53.286;8.534;2023-08-21T13:40:01;23.40;99.90
13944;DHT22;7044;53.286;8.534;2023-08-21T13:42:37;23.30;99.90
13944;DHT22;7044;53.286;8.534;2023-08-21T13:45:07;23.30;99.90
13944;DHT22;7044;53.286;8.534;2023-08-21T13:47:35;23.20;99.90
13944;DHT22;7044;53.286;8.534;2023-08-21T13:50:03;23.30;99.90
13944;DHT22;7044;53.286;8.534;2023-08-21T13:52:30;23.30;99.90
13944;DHT22;7044;53.286;8.534;2023-08-21T13:54:58;23.30;99.90
13944;DHT22;7044;53.286;8.534;2023-08-21T13:57:25;23.30;99.90
13944;DHT22;7044;53.286;8.534;2023-08-21T13:59:53;23.40;99.90
13944;DHT22;7044;53.286;8.534;2023-08-21T14:02:20;23.40;99.90
13944;DHT22;7044;53.286;8.534;2023-08-21T14:04:48;23.60;99.90
13944;DHT22;7044;53.286;8.534;2023-08-21T14:07:15;23.60;99.90
13944;DHT22;7044;53.286;8.534;2023-08-21T14:09:42;23.60;99.90
13944;DHT22;7044;53.286;8.534;2023-08-21T14:12:09;23.60;99.90
13944;DHT22;7044;53.286;8.534;2023-08-21T14:14:36;23.60;99.90
13944;DHT22;7044;53.286;8.534;2023-08-21T14:17:04;23.20;99.90
13944;DHT22;7044;53.286;8.534;2023-08-21T14:19:31;23.60;99.90
13944;DHT22;7044;53.286;8.534;2023-08-21T14:21:58;23.60;99.90
13944;DHT22;7044;53.286;8.534;2023-08-21T14:24:26;23.70;99.90
13944;DHT22;7044;53.286;8.534;2023-08-21T14:26:53;23.90;99.90
13944;DHT22;7044;53.286;8.534;2023-08-21T14:29:19;23.90;99.90
13944;DHT22;7044;53.286;8.534;2023-08-21T14:31:46;24.00;99.90
13944;DHT22;7044;53.286;8.534;2023-08-21T14:34:15;23.90;99.90
13944;DHT22;7044;53.286;8.534;2023-08-21T14:36:42;23.90;99.90
13944;DHT22;7044;53.286;8.534;2023-08-21T14:39:09;23.90;99.90
13944;DHT22;7044;53.286;8.534;2023-08-21T14:41:37;23.80;99.90
13944;DHT22;7044;53.286;8.534;2023-08-21T14:44:04;23.80;99.90
13944;DHT22;7044;53.286;8.534;2023-08-21T14:46:31;23.80;99.90
13944;DHT22;7044;53.286;8.534;2023-08-21T14:48:58;23.90;99.90
13944;DHT22;7044;53.286;8.534;2023-08-21T14:51:27;23.90;99.90
13944;DHT22;7044;53.286;8.534;2023-08-21T14:53:54;23.90;99.90
13944;DHT22;7044;53.286;8.534;2023-08-21T14:56:21;23.80;99.90
13944;DHT22;7044;53.286;8.534;2023-08-21T14:58:48;23.90;99.90
13944;DHT22;7044;53.286;8.534;2023-08-21T15:01:15;23.80;99.90
13944;DHT22;7044;53.286;8.534;2023-08-21T15:03:42;23.80;99.90
13944;DHT22;7044;53.286;8.534;2023-08-21T15:06:08;23.80;99.90
13944;DHT22;7044;53.286;8.534;2023-08-21T15:08:38;23.80;99.90
13944;DHT22;7044;53.286;8.534;2023-08-21T15:11:05;23.80;99.90
13944;DHT22;7044;53.286;8.534;2023-08-21T15:13:31;23.60;99.90
13944;DHT22;7044;53.286;8.534;2023-08-21T15:15:58;23.60;99.90
13944;DHT22;7044;53.286;8.534;2023-08-21T15:18:25;23.60;99.90
13944;DHT22;7044;53.286;8.534;2023-08-21T15:20:52;23.20;99.90
13944;DHT22;7044;53.286;8.534;2023-08-21T15:23:18;23.60;99.90
13944;DHT22;7044;53.286;8.534;2023-08-21T15:25:47;23.60;99.90
13944;DHT22;7044;53.286;8.534;2023-08-21T15:28:14;23.60;99.90
13944;DHT22;7044;53.286;8.534;2023-08-21T15:30:40;23.20;99.90
13944;DHT22;7044;53.286;8.534;2023-08-21T15:33:07;23.70;99.90
13944;DHT22;7044;53.286;8.534;2023-08-21T15:35:34;23.70;99.90
13944;DHT22;7044;53.286;8.534;2023-08-21T15:38:01;23.80;99.90
13944;DHT22;7044;53.286;8.534;2023-08-21T15:40:28;23.80;99.90
13944;DHT22;7044;53.286;8.534;2023-08-21T15:42:57;23.90;99.90
13944;DHT22;7044;53.286;8.534;2023-08-21T15:45:26;23.90;99.90
13944;DHT22;7044;53.286;8.534;2023-08-21T15:47:53;23.90;99.90
13944;DHT22;7044;53.286;8.534;2023-08-21T15:50:20;23.80;99.90
13944;DHT22;7044;53.286;8.534;2023-08-21T15:52:47;23.40;99.90